createdAt,value
2023-04-26T00:00:15.971Z,85.54
2023-04-26T00:02:45.854Z,85.71
2023-04-26T00:05:16.852Z,85.71
2023-04-26T00:07:46.801Z,85.70
2023-04-26T00:10:16.765Z,85.49
2023-04-26T00:12:46.584Z,85.60
2023-04-26T00:15:16.459Z,85.95
2023-04-26T00:17:46.522Z,86.05
2023-04-26T00:20:16.600Z,86.03
2023-04-26T00:22:46.637Z,86.22
2023-04-26T00:25:16.045Z,86.26
2023-04-26T00:27:46.147Z,86.58
2023-04-26T00:30:16.120Z,87.04
2023-04-26T00:32:47.075Z,86.85
2023-04-26T00:35:16.895Z,87.21
2023-04-26T00:37:46.726Z,87.80
2023-04-26T00:40:17.110Z,88.00
2023-04-26T00:42:46.820Z,88.63
2023-04-26T00:45:15.319Z,88.27
2023-04-26T00:47:43.768Z,88.60
2023-04-26T00:50:12.367Z,88.99
2023-04-26T00:52:40.886Z,89.40
2023-04-26T00:55:10.411Z,89.59
2023-04-26T00:57:37.543Z,89.72
2023-04-26T01:00:06.881Z,89.70
2023-04-26T01:02:34.228Z,90.25
2023-04-26T01:05:05.236Z,90.24
2023-04-26T01:07:37.369Z,90.24
2023-04-26T01:10:09.290Z,90.27
2023-04-26T01:12:39.795Z,90.30
2023-04-26T01:15:10.672Z,90.17
2023-04-26T01:17:38.828Z,90.67
2023-04-26T01:20:10.415Z,91.15
2023-04-26T01:22:39.458Z,91.13
2023-04-26T01:25:12.334Z,91.33
2023-04-26T01:27:41.782Z,92.12
2023-04-26T01:30:12.600Z,92.48
2023-04-26T01:32:42.024Z,93.04
2023-04-26T01:35:12.106Z,93.08
2023-04-26T01:37:41.893Z,93.58
2023-04-26T01:40:12.632Z,93.86
2023-04-26T01:42:42.341Z,93.50
2023-04-26T01:45:12.361Z,93.59
2023-04-26T01:47:42.325Z,93.75
2023-04-26T01:50:12.377Z,93.57
2023-04-26T01:52:42.529Z,93.88
2023-04-26T01:55:12.266Z,94.43
2023-04-26T01:57:42.193Z,95.01
2023-04-26T02:00:12.817Z,94.68
2023-04-26T02:02:42.519Z,95.01
2023-04-26T02:05:12.675Z,95.28
2023-04-26T02:07:42.559Z,95.15
2023-04-26T02:10:12.386Z,95.10
2023-04-26T02:12:42.308Z,95.40
2023-04-26T02:15:12.173Z,95.43
2023-04-26T02:17:41.031Z,95.33
2023-04-26T02:20:12.867Z,95.61
2023-04-26T02:22:40.492Z,95.90
2023-04-26T02:25:09.009Z,96.40
2023-04-26T02:27:37.281Z,96.74
2023-04-26T02:30:06.996Z,96.67
2023-04-26T02:32:34.140Z,96.79
2023-04-26T02:35:02.883Z,97.22
2023-04-26T02:37:32.315Z,97.35
2023-04-26T02:39:59.278Z,97.94
2023-04-26T02:42:27.706Z,97.63
2023-04-26T02:44:56.808Z,98.24
2023-04-26T02:47:24.655Z,98.34
2023-04-26T02:49:53.030Z,98.68
2023-04-26T02:52:21.560Z,98.92
2023-04-26T02:54:49.909Z,99.22
2023-04-26T02:57:18.286Z,99.48
2023-04-26T02:59:46.986Z,99.56
2023-04-26T03:02:15.306Z,99.75
2023-04-26T03:04:43.723Z,99.85
2023-04-26T03:07:12.165Z,99.84
2023-04-26T03:09:40.597Z,100.00
2023-04-26T03:12:14.992Z,100.00
2023-04-26T03:14:43.760Z,100.00
2023-04-26T03:17:11.053Z,100.00
2023-04-26T03:19:40.964Z,100.00
2023-04-26T03:22:12.420Z,100.00
2023-04-26T03:24:46.709Z,100.00
2023-04-26T03:27:13.974Z,100.00
2023-04-26T03:29:44.253Z,100.00
2023-04-26T03:32:13.949Z,100.00
2023-04-26T03:34:43.864Z,100.00
2023-04-26T03:37:14.020Z,100.00
2023-04-26T03:39:43.888Z,100.00
2023-04-26T03:42:18.484Z,100.00
2023-04-26T03:44:47.002Z,100.00
2023-04-26T03:47:16.945Z,100.00
2023-04-26T03:49:46.734Z,100.00
2023-04-26T03:52:15.403Z,100.00
2023-04-26T03:54:43.660Z,100.00
2023-04-26T03:57:12.018Z,100.00
2023-04-26T03:59:40.374Z,100.00
2023-04-26T04:02:09.074Z,100.00
2023-04-26T04:04:37.427Z,100.00
2023-04-26T04:07:05.754Z,100.00
2023-04-26T04:09:34.250Z,100.00
2023-04-26T04:12:03.309Z,100.00
2023-04-26T04:14:31.047Z,100.00
2023-04-26T04:16:59.740Z,100.00
2023-04-26T04:19:27.882Z,100.00
2023-04-26T04:21:56.609Z,100.00
2023-04-26T04:24:25.736Z,100.00
2023-04-26T04:26:54.469Z,100.00
2023-04-26T04:29:22.656Z,100.00
2023-04-26T04:31:50.884Z,100.00
2023-04-26T04:34:19.074Z,100.00
2023-04-26T04:36:47.471Z,100.00
2023-04-26T04:39:17.170Z,100.00
2023-04-26T04:41:48.294Z,100.00
2023-04-26T04:44:16.387Z,100.00
2023-04-26T04:46:44.894Z,100.00
2023-04-26T04:49:12.958Z,100.00
2023-04-26T04:51:40.941Z,100.00
2023-04-26T04:54:11.848Z,100.00
2023-04-26T04:56:41.931Z,100.00
2023-04-26T04:59:12.566Z,100.00
2023-04-26T05:01:42.490Z,100.00
2023-04-26T05:04:12.388Z,100.00
2023-04-26T05:06:42.711Z,99.87
2023-04-26T05:09:12.533Z,99.54
2023-04-26T05:11:42.230Z,99.15
2023-04-26T05:14:12.011Z,98.64
2023-04-26T05:16:41.972Z,98.09
2023-04-26T05:19:13.425Z,97.79
2023-04-26T05:21:43.363Z,97.03
2023-04-26T05:24:13.199Z,96.46
2023-04-26T05:26:43.030Z,96.07
2023-04-26T05:29:13.052Z,95.42
2023-04-26T05:31:42.811Z,95.46
2023-04-26T05:34:12.643Z,94.10
2023-04-26T05:36:42.409Z,93.65
2023-04-26T05:39:12.417Z,93.06
2023-04-26T05:41:42.398Z,92.37
2023-04-26T05:44:16.686Z,91.93
2023-04-26T05:46:47.370Z,91.14
2023-04-26T05:49:17.077Z,90.90
2023-04-26T05:51:46.867Z,90.08
2023-04-26T05:54:16.719Z,89.71
2023-04-26T05:56:45.722Z,88.70
2023-04-26T05:59:13.748Z,88.70
2023-04-26T06:01:41.908Z,87.83
2023-04-26T06:04:11.048Z,87.46
2023-04-26T06:06:38.798Z,87.30
2023-04-26T06:09:07.150Z,86.54
2023-04-26T06:11:35.778Z,85.62
2023-04-26T06:14:04.699Z,84.70
2023-04-26T06:16:32.464Z,83.22
2023-04-26T06:19:01.563Z,83.65
2023-04-26T06:21:29.248Z,82.77
2023-04-26T06:23:57.641Z,82.22
2023-04-26T06:26:25.998Z,82.01
2023-04-26T06:28:54.475Z,81.00
2023-04-26T06:31:23.091Z,80.52
2023-04-26T06:33:51.683Z,79.58
2023-04-26T06:36:19.764Z,79.67
2023-04-26T06:38:48.681Z,79.25
2023-04-26T06:41:16.607Z,78.83
2023-04-26T06:43:44.982Z,77.61
2023-04-26T06:46:13.470Z,77.65
2023-04-26T06:48:41.889Z,76.38
2023-04-26T06:51:11.001Z,75.65
2023-04-26T06:53:38.621Z,74.82
2023-04-26T06:56:07.414Z,74.83
2023-04-26T06:58:36.265Z,74.35
2023-04-26T07:01:03.932Z,73.92
2023-04-26T07:03:32.915Z,72.99
2023-04-26T07:06:00.753Z,71.92
2023-04-26T07:08:29.021Z,71.93
2023-04-26T07:10:57.448Z,72.16
2023-04-26T07:13:25.996Z,71.38
2023-04-26T07:15:55.275Z,72.24
2023-04-26T07:18:22.816Z,73.63
2023-04-26T07:20:51.236Z,72.53
2023-04-26T07:23:20.047Z,72.20
2023-04-26T07:25:48.072Z,71.61
2023-04-26T07:28:16.437Z,71.73
2023-04-26T07:30:44.921Z,72.84
2023-04-26T07:33:13.399Z,71.54
2023-04-26T07:35:43.888Z,69.22
2023-04-26T07:38:19.555Z,68.89
2023-04-26T07:40:50.734Z,68.87
2023-04-26T07:43:21.250Z,65.97
2023-04-26T07:45:51.689Z,66.92
2023-04-26T07:48:22.022Z,66.76
2023-04-26T07:50:52.093Z,67.64
2023-04-26T07:53:23.184Z,67.94
2023-04-26T07:55:52.900Z,66.48
2023-04-26T07:58:22.818Z,64.06
2023-04-26T08:00:52.903Z,63.78
2023-04-26T08:03:22.816Z,65.29
2023-04-26T08:05:54.087Z,66.56
2023-04-26T08:08:24.121Z,62.89
2023-04-26T08:10:53.928Z,62.24
2023-04-26T08:13:24.465Z,61.25
2023-04-26T08:15:55.687Z,62.04
2023-04-26T08:18:25.771Z,62.53
2023-04-26T08:20:55.636Z,61.78
2023-04-26T08:23:25.427Z,63.36
2023-04-26T08:25:55.266Z,63.64
2023-04-26T08:28:25.013Z,64.74
2023-04-26T08:30:55.401Z,63.11
2023-04-26T08:33:26.067Z,61.94
2023-04-26T08:35:56.029Z,63.09
2023-04-26T08:38:25.832Z,60.86
2023-04-26T08:40:59.310Z,62.65
2023-04-26T08:43:30.328Z,64.05
2023-04-26T08:46:01.824Z,63.58
2023-04-26T08:48:36.228Z,62.15
2023-04-26T08:51:11.447Z,63.52
2023-04-26T08:53:42.979Z,60.07
2023-04-26T08:56:13.954Z,57.98
2023-04-26T08:58:43.542Z,59.77
2023-04-26T09:01:16.115Z,58.21
2023-04-26T09:03:44.778Z,55.78
2023-04-26T09:06:15.659Z,54.85
2023-04-26T09:08:46.862Z,53.12
2023-04-26T09:11:16.306Z,53.25
2023-04-26T09:13:46.020Z,52.93
2023-04-26T09:16:16.002Z,54.26
2023-04-26T09:18:52.719Z,56.78
2023-04-26T09:21:20.281Z,56.31
2023-04-26T09:24:01.776Z,56.04
2023-04-26T09:26:29.008Z,54.55
2023-04-26T09:29:20.953Z,55.13
2023-04-26T09:31:50.721Z,55.90
2023-04-26T09:34:19.902Z,57.63
2023-04-26T09:36:56.905Z,58.19
2023-04-26T09:39:34.427Z,56.15
2023-04-26T09:42:06.303Z,56.41
2023-04-26T09:44:34.895Z,55.18
2023-04-26T09:47:11.638Z,54.68
2023-04-26T09:49:51.609Z,56.35
2023-04-26T09:52:20.813Z,57.02
2023-04-26T09:54:53.855Z,57.48
2023-04-26T09:57:23.697Z,56.86
2023-04-26T09:59:56.298Z,59.20
2023-04-26T10:02:27.957Z,60.03
2023-04-26T10:04:57.504Z,59.12
2023-04-26T10:07:27.501Z,56.27
2023-04-26T10:09:58.427Z,55.35
2023-04-26T10:12:29.507Z,56.63
2023-04-26T10:14:58.525Z,55.15
2023-04-26T10:17:28.312Z,55.41
2023-04-26T10:20:00.463Z,56.03
2023-04-26T10:22:34.184Z,55.74
2023-04-26T10:25:01.490Z,55.77
2023-04-26T10:27:43.685Z,57.28
2023-04-26T10:30:19.600Z,57.39
2023-04-26T10:32:52.970Z,54.88
2023-04-26T10:35:26.171Z,54.49
2023-04-26T10:38:01.900Z,54.68
2023-04-26T10:40:39.138Z,54.80
2023-04-26T10:43:08.783Z,55.61
2023-04-26T10:45:40.522Z,55.45
2023-04-26T10:48:20.732Z,53.52
2023-04-26T10:51:05.526Z,51.63
2023-04-26T10:53:35.258Z,48.76
2023-04-26T10:56:05.188Z,49.31
2023-04-26T10:58:35.711Z,49.40
2023-04-26T11:01:13.763Z,47.93
2023-04-26T11:04:06.236Z,48.50
2023-04-26T11:06:57.857Z,49.51
2023-04-26T11:09:40.840Z,49.80
2023-04-26T11:12:17.980Z,49.67
2023-04-26T11:14:47.759Z,51.90
2023-04-26T11:17:17.605Z,51.99
2023-04-26T11:19:47.819Z,53.37
2023-04-26T11:22:23.560Z,56.59
2023-04-26T11:24:52.777Z,56.80
2023-04-26T11:27:28.104Z,57.02
2023-04-26T11:29:56.951Z,56.82
2023-04-26T11:32:26.679Z,56.08
2023-04-26T11:34:54.047Z,56.53
2023-04-26T11:37:23.099Z,56.74
2023-04-26T11:39:51.336Z,55.83
2023-04-26T11:42:25.987Z,55.40
2023-04-26T11:44:59.504Z,54.50
2023-04-26T11:47:30.879Z,54.33
2023-04-26T11:50:03.244Z,53.68
2023-04-26T11:52:31.681Z,54.87
2023-04-26T11:55:06.700Z,55.53
2023-04-26T11:57:36.664Z,56.11
2023-04-26T12:00:14.677Z,56.71
2023-04-26T12:02:48.280Z,56.81
2023-04-26T12:05:30.649Z,55.05
2023-04-26T12:08:00.878Z,53.52
2023-04-26T12:10:39.696Z,54.97
2023-04-26T12:13:06.682Z,54.18
2023-04-26T12:15:34.740Z,53.17
2023-04-26T12:18:10.956Z,52.95
2023-04-26T12:20:43.146Z,53.92
2023-04-26T12:23:17.275Z,52.74
2023-04-26T12:26:01.985Z,50.85
2023-04-26T12:28:31.997Z,51.48
2023-04-26T12:31:03.536Z,49.33
2023-04-26T12:33:33.299Z,49.75
2023-04-26T12:36:12.845Z,50.43
2023-04-26T12:38:42.738Z,52.05
2023-04-26T12:41:12.553Z,54.86
2023-04-26T12:43:42.465Z,58.40
2023-04-26T12:46:12.270Z,61.79
2023-04-26T12:48:42.139Z,63.67
2023-04-26T12:51:12.037Z,60.96
2023-04-26T12:53:41.900Z,58.84
2023-04-26T12:56:11.881Z,57.19
2023-04-26T12:58:41.902Z,56.42
2023-04-26T13:01:14.273Z,51.46
2023-04-26T13:03:45.250Z,48.57
2023-04-26T13:06:15.446Z,48.61
2023-04-26T13:08:45.308Z,49.63
2023-04-26T13:11:15.252Z,50.15
2023-04-26T13:13:45.362Z,50.08
2023-04-26T13:16:14.014Z,49.97
2023-04-26T13:18:42.525Z,50.64
2023-04-26T13:21:11.104Z,50.50
2023-04-26T13:23:39.501Z,48.87
2023-04-26T13:26:07.995Z,47.47
2023-04-26T13:28:37.186Z,47.48
2023-04-26T13:31:04.909Z,48.26
2023-04-26T13:33:33.259Z,48.43
2023-04-26T13:36:01.809Z,47.72
2023-04-26T13:38:31.741Z,47.45
2023-04-26T13:41:02.834Z,46.41
2023-04-26T13:43:29.977Z,47.05
2023-04-26T13:45:58.526Z,47.99
2023-04-26T13:48:28.360Z,49.67
2023-04-26T13:50:58.993Z,48.59
2023-04-26T13:53:28.760Z,49.54
2023-04-26T13:55:58.513Z,49.72
2023-04-26T13:58:28.250Z,49.16
2023-04-26T14:00:57.951Z,49.52
2023-04-26T14:03:27.983Z,50.81
2023-04-26T14:05:58.114Z,50.31
2023-04-26T14:08:27.887Z,50.19
2023-04-26T14:10:57.727Z,50.06
2023-04-26T14:13:27.494Z,49.80
2023-04-26T14:15:57.296Z,49.36
2023-04-26T14:18:27.117Z,49.28
2023-04-26T14:20:56.994Z,49.24
2023-04-26T14:23:26.748Z,49.56
2023-04-26T14:25:56.639Z,47.90
2023-04-26T14:28:26.551Z,48.71
2023-04-26T14:30:56.363Z,48.11
2023-04-26T14:33:26.403Z,48.82
2023-04-26T14:35:57.079Z,48.85
2023-04-26T14:38:26.682Z,48.60
2023-04-26T14:40:56.545Z,48.01
2023-04-26T14:43:24.989Z,47.54
2023-04-26T14:45:53.435Z,47.40
2023-04-26T14:48:21.794Z,45.14
2023-04-26T14:50:50.266Z,47.13
2023-04-26T14:53:18.760Z,48.20
2023-04-26T14:55:54.920Z,49.18
2023-04-26T14:58:26.115Z,49.43
2023-04-26T15:00:56.203Z,49.93
2023-04-26T15:03:26.875Z,47.43
2023-04-26T15:05:57.069Z,49.08
2023-04-26T15:08:26.813Z,49.47
2023-04-26T15:10:56.658Z,48.57
2023-04-26T15:13:26.758Z,48.57
2023-04-26T15:15:56.620Z,48.17
2023-04-26T15:18:26.610Z,48.08
2023-04-26T15:20:56.544Z,47.33
2023-04-26T15:23:26.773Z,47.09
2023-04-26T15:26:03.101Z,47.99
2023-04-26T15:28:33.140Z,47.95
2023-04-26T15:31:09.307Z,48.46
2023-04-26T15:33:39.108Z,49.49
2023-04-26T15:36:09.495Z,47.66
2023-04-26T15:38:41.749Z,47.65
2023-04-26T15:41:11.506Z,47.13
2023-04-26T15:43:41.504Z,47.09
2023-04-26T15:46:14.919Z,47.84
2023-04-26T15:48:44.828Z,48.17
2023-04-26T15:51:14.892Z,48.32
2023-04-26T15:53:44.761Z,48.76
2023-04-26T15:56:15.953Z,47.97
2023-04-26T15:58:45.120Z,48.47
2023-04-26T16:01:15.461Z,50.01
2023-04-26T16:03:46.514Z,50.17
2023-04-26T16:06:17.417Z,50.64
2023-04-26T16:08:47.407Z,51.10
2023-04-26T16:11:17.239Z,50.10
2023-04-26T16:13:51.695Z,50.34
2023-04-26T16:16:21.781Z,50.42
2023-04-26T16:18:51.657Z,51.06
2023-04-26T16:21:21.708Z,51.44
2023-04-26T16:23:52.002Z,50.22
2023-04-26T16:26:22.092Z,49.40
2023-04-26T16:28:51.915Z,48.80
2023-04-26T16:31:22.718Z,48.89
2023-04-26T16:33:52.903Z,49.53
2023-04-26T16:36:22.701Z,50.09
2023-04-26T16:38:53.784Z,51.03
2023-04-26T16:41:24.515Z,51.34
2023-04-26T16:43:56.096Z,51.87
2023-04-26T16:46:25.916Z,51.89
2023-04-26T16:48:56.024Z,52.36
2023-04-26T16:51:24.860Z,52.51
2023-04-26T16:53:52.677Z,51.57
2023-04-26T16:56:21.237Z,51.95
2023-04-26T16:58:49.678Z,51.34
2023-04-26T17:01:18.182Z,51.25
2023-04-26T17:03:47.104Z,51.63
2023-04-26T17:06:14.907Z,52.56
2023-04-26T17:08:43.306Z,52.35
2023-04-26T17:11:16.696Z,51.80
2023-04-26T17:13:46.625Z,53.17
2023-04-26T17:16:16.877Z,53.63
2023-04-26T17:18:46.801Z,53.87
2023-04-26T17:21:16.572Z,54.03
2023-04-26T17:23:46.481Z,54.24
2023-04-26T17:26:16.588Z,54.08
2023-04-26T17:28:46.460Z,54.47
2023-04-26T17:31:16.320Z,53.20
2023-04-26T17:33:46.122Z,53.33
2023-04-26T17:36:16.384Z,53.59
2023-04-26T17:38:46.350Z,54.21
2023-04-26T17:41:18.904Z,54.28
2023-04-26T17:43:47.611Z,54.79
2023-04-26T17:46:17.419Z,54.76
2023-04-26T17:48:47.187Z,55.02
2023-04-26T17:51:16.912Z,55.25
2023-04-26T17:53:47.004Z,55.84
2023-04-26T17:56:15.229Z,56.00
2023-04-26T17:58:43.731Z,56.32
2023-04-26T18:01:12.312Z,56.48
2023-04-26T18:03:41.290Z,56.77
2023-04-26T18:06:09.005Z,56.54
2023-04-26T18:08:37.575Z,57.06
2023-04-26T18:11:06.316Z,57.20
2023-04-26T18:13:34.124Z,58.08
2023-04-26T18:16:03.604Z,59.17
2023-04-26T18:18:31.275Z,59.82
2023-04-26T18:20:59.511Z,59.91
2023-04-26T18:23:27.827Z,60.74
2023-04-26T18:25:56.181Z,61.05
2023-04-26T18:28:24.737Z,61.39
2023-04-26T18:31:01.007Z,62.08
2023-04-26T18:33:29.052Z,62.40
2023-04-26T18:35:58.854Z,63.32
2023-04-26T18:38:29.244Z,64.21
2023-04-26T18:40:59.156Z,64.74
2023-04-26T18:43:29.007Z,65.22
2023-04-26T18:45:59.015Z,66.33
2023-04-26T18:48:29.266Z,66.25
2023-04-26T18:50:59.049Z,66.38
2023-04-26T18:53:29.169Z,66.33
2023-04-26T18:55:59.022Z,68.18
2023-04-26T18:58:29.087Z,68.49
2023-04-26T19:00:58.997Z,69.79
2023-04-26T19:03:29.156Z,70.97
2023-04-26T19:05:59.124Z,71.32
2023-04-26T19:08:28.946Z,71.95
2023-04-26T19:10:59.277Z,72.56
2023-04-26T19:13:29.067Z,73.27
2023-04-26T19:15:58.887Z,73.92
2023-04-26T19:18:28.767Z,74.21
2023-04-26T19:21:10.110Z,74.34
2023-04-26T19:23:38.482Z,74.89
2023-04-26T19:26:14.349Z,75.68
2023-04-26T19:28:44.785Z,75.72
2023-04-26T19:31:14.645Z,75.01
2023-04-26T19:33:46.073Z,74.54
2023-04-26T19:36:16.043Z,74.92
2023-04-26T19:38:47.932Z,74.98
2023-04-26T19:41:17.718Z,75.06
2023-04-26T19:43:46.414Z,75.22
2023-04-26T19:46:15.477Z,74.17
2023-04-26T19:48:43.024Z,74.74
2023-04-26T19:51:17.439Z,75.08
2023-04-26T19:53:47.184Z,75.72
2023-04-26T19:56:17.001Z,76.46
2023-04-26T19:58:47.252Z,76.93
2023-04-26T20:01:17.041Z,77.21
2023-04-26T20:03:46.999Z,77.63
2023-04-26T20:06:17.124Z,77.25
2023-04-26T20:08:48.049Z,78.12
2023-04-26T20:11:18.605Z,78.80
2023-04-26T20:13:48.432Z,78.82
2023-04-26T20:16:18.823Z,78.87
2023-04-26T20:18:48.544Z,79.64
2023-04-26T20:21:18.317Z,79.70
2023-04-26T20:23:48.116Z,79.98
2023-04-26T20:26:18.002Z,79.80
2023-04-26T20:28:48.647Z,79.66
2023-04-26T20:31:19.079Z,79.78
2023-04-26T20:33:48.694Z,79.90
2023-04-26T20:36:18.482Z,80.37
2023-04-26T20:38:48.338Z,80.81
2023-04-26T20:41:18.146Z,81.35
2023-04-26T20:43:47.918Z,82.18
2023-04-26T20:46:17.836Z,82.34
2023-04-26T20:48:47.646Z,82.40
2023-04-26T20:51:17.424Z,82.41
2023-04-26T20:53:47.202Z,82.33
2023-04-26T20:56:17.089Z,82.58
2023-04-26T20:58:45.404Z,82.28
2023-04-26T21:01:14.057Z,82.41
2023-04-26T21:03:42.482Z,82.95
2023-04-26T21:06:10.922Z,83.49
2023-04-26T21:08:40.518Z,83.60
2023-04-26T21:11:07.805Z,83.74
2023-04-26T21:13:36.239Z,84.04
2023-04-26T21:16:05.430Z,84.35
2023-04-26T21:18:33.066Z,84.63
2023-04-26T21:21:01.556Z,84.92
2023-04-26T21:23:30.125Z,85.12
2023-04-26T21:25:58.636Z,84.92
2023-04-26T21:28:27.128Z,85.03
2023-04-26T21:31:06.360Z,85.45
2023-04-26T21:33:36.402Z,85.80
2023-04-26T21:36:07.046Z,85.94
2023-04-26T21:38:36.841Z,85.92
2023-04-26T21:41:06.660Z,85.88
2023-04-26T21:43:36.529Z,86.20
2023-04-26T21:46:07.907Z,86.13
2023-04-26T21:48:39.278Z,86.36
2023-04-26T21:51:09.013Z,86.52
2023-04-26T21:53:37.468Z,86.65
2023-04-26T21:56:06.592Z,86.38
2023-04-26T21:58:35.003Z,86.96
2023-04-26T22:01:12.382Z,88.14
2023-04-26T22:03:42.933Z,88.43
2023-04-26T22:06:12.817Z,87.78
2023-04-26T22:08:42.744Z,87.18
2023-04-26T22:11:12.513Z,86.54
2023-04-26T22:13:42.298Z,86.99
2023-04-26T22:16:12.029Z,87.53
2023-04-26T22:18:41.812Z,87.90
2023-04-26T22:21:12.001Z,88.41
2023-04-26T22:23:41.770Z,88.39
2023-04-26T22:26:11.496Z,88.60
2023-04-26T22:28:41.552Z,88.13
2023-04-26T22:31:11.393Z,87.89
2023-04-26T22:33:41.479Z,87.51
2023-04-26T22:36:11.325Z,86.82
2023-04-26T22:38:41.166Z,87.00
2023-04-26T22:41:11.082Z,86.52
2023-04-26T22:43:41.997Z,86.23
2023-04-26T22:46:11.656Z,85.67
2023-04-26T22:48:41.713Z,85.14
2023-04-26T22:51:11.550Z,84.62
2023-04-26T22:53:41.375Z,84.58
2023-04-26T22:56:11.376Z,84.51
2023-04-26T22:58:41.189Z,84.35
2023-04-26T23:01:11.238Z,83.71
2023-04-26T23:03:41.412Z,84.20
2023-04-26T23:06:11.296Z,83.62
2023-04-26T23:08:41.483Z,83.23
2023-04-26T23:11:11.272Z,82.91
2023-04-26T23:13:41.222Z,82.82
2023-04-26T23:16:11.081Z,82.56
2023-04-26T23:18:46.477Z,82.61
2023-04-26T23:21:16.450Z,81.88
2023-04-26T23:23:46.197Z,81.65
2023-04-26T23:26:16.109Z,81.45
2023-04-26T23:28:44.373Z,81.49
2023-04-26T23:31:12.726Z,81.25
2023-04-26T23:33:41.835Z,81.42
2023-04-26T23:36:10.269Z,80.92
2023-04-26T23:38:38.014Z,80.81
2023-04-26T23:41:06.570Z,80.97
2023-04-26T23:43:34.895Z,81.04
2023-04-26T23:46:03.339Z,81.15
2023-04-26T23:48:32.565Z,81.37
2023-04-26T23:51:00.401Z,80.57
2023-04-26T23:53:28.641Z,80.77
2023-04-26T23:55:57.053Z,80.68
2023-04-26T23:58:25.615Z,81.32
